sensor_id;sensor_type;location;lat;lon;timestamp;temperature;humidity
59307;DHT22;47983;53.016;-2.260;2023-03-01T00:01:17;5.50;99.90
59307;DHT22;47983;53.016;-2.260;2023-03-01T00:03:45;5.60;99.90
59307;DHT22;47983;53.016;-2.260;2023-03-01T00:06:13;5.60;99.90
59307;DHT22;47983;53.016;-2.260;2023-03-01T00:08:44;5.60;99.90
59307;DHT22;47983;53.016;-2.260;2023-03-01T00:11:23;5.60;99.90
59307;DHT22;47983;53.016;-2.260;2023-03-01T00:13:54;5.70;99.90
59307;DHT22;47983;53.016;-2.260;2023-03-01T00:16:27;5.80;99.90
59307;DHT22;47983;53.016;-2.260;2023-03-01T00:18:57;5.70;99.90
59307;DHT22;47983;53.016;-2.260;2023-03-01T00:21:26;5.80;99.90
59307;DHT22;47983;53.016;-2.260;2023-03-01T00:23:55;5.80;99.90
59307;DHT22;47983;53.016;-2.260;2023-03-01T00:26:24;5.80;99.90
59307;DHT22;47983;53.016;-2.260;2023-03-01T00:28:53;5.80;99.90
59307;DHT22;47983;53.016;-2.260;2023-03-01T00:31:22;5.90;99.90
59307;DHT22;47983;53.016;-2.260;2023-03-01T00:33:54;5.90;99.90
59307;DHT22;47983;53.016;-2.260;2023-03-01T00:36:28;5.90;99.90
59307;DHT22;47983;53.016;-2.260;2023-03-01T00:38:57;5.80;99.90
59307;DHT22;47983;53.016;-2.260;2023-03-01T00:41:26;5.90;99.90
59307;DHT22;47983;53.016;-2.260;2023-03-01T00:43:54;5.90;99.90
59307;DHT22;47983;53.016;-2.260;2023-03-01T00:46:25;5.90;99.90
59307;DHT22;47983;53.016;-2.260;2023-03-01T00:48:53;5.90;99.90
59307;DHT22;47983;53.016;-2.260;2023-03-01T00:51:24;6.00;99.90
59307;DHT22;47983;53.016;-2.260;2023-03-01T00:53:54;6.00;99.90
59307;DHT22;47983;53.016;-2.260;2023-03-01T00:56:24;5.90;99.90
59307;DHT22;47983;53.016;-2.260;2023-03-01T00:58:52;6.00;99.90
59307;DHT22;47983;53.016;-2.260;2023-03-01T01:01:22;6.00;99.90
59307;DHT22;47983;53.016;-2.260;2023-03-01T01:04:00;6.00;99.90
59307;DHT22;47983;53.016;-2.260;2023-03-01T01:06:34;6.00;99.90
59307;DHT22;47983;53.016;-2.260;2023-03-01T01:09:05;6.00;99.90
59307;DHT22;47983;53.016;-2.260;2023-03-01T01:11:33;6.00;99.90
59307;DHT22;47983;53.016;-2.260;2023-03-01T01:14:03;6.00;99.90
59307;DHT22;47983;53.016;-2.260;2023-03-01T01:16:30;6.00;99.90
59307;DHT22;47983;53.016;-2.260;2023-03-01T01:18:58;6.00;99.90
59307;DHT22;47983;53.016;-2.260;2023-03-01T01:21:28;6.00;99.90
59307;DHT22;47983;53.016;-2.260;2023-03-01T01:23:57;6.00;99.90
59307;DHT22;47983;53.016;-2.260;2023-03-01T01:26:29;6.00;99.90
59307;DHT22;47983;53.016;-2.260;2023-03-01T01:28:59;6.00;99.90
59307;DHT22;47983;53.016;-2.260;2023-03-01T01:31:28;6.00;99.90
59307;DHT22;47983;53.016;-2.260;2023-03-01T01:33:59;6.00;99.90
59307;DHT22;47983;53.016;-2.260;2023-03-01T01:36:27;6.00;99.90
59307;DHT22;47983;53.016;-2.260;2023-03-01T01:38:55;6.00;99.90
59307;DHT22;47983;53.016;-2.260;2023-03-01T01:41:25;6.00;99.90
59307;DHT22;47983;53.016;-2.260;2023-03-01T01:44:28;6.00;99.90
59307;DHT22;47983;53.016;-2.260;2023-03-01T01:47:03;6.00;99.90
59307;DHT22;47983;53.016;-2.260;2023-03-01T01:49:32;6.00;99.90
59307;DHT22;47983;53.016;-2.260;2023-03-01T01:52:03;5.90;99.90
59307;DHT22;47983;53.016;-2.260;2023-03-01T01:57:26;5.90;99.90
59307;DHT22;47983;53.016;-2.260;2023-03-01T01:59:58;5.90;99.90
59307;DHT22;47983;53.016;-2.260;2023-03-01T02:02:27;5.90;99.90
59307;DHT22;47983;53.016;-2.260;2023-03-01T02:05:05;5.90;99.90
59307;DHT22;47983;53.016;-2.260;2023-03-01T02:07:39;5.90;99.90
59307;DHT22;47983;53.016;-2.260;2023-03-01T02:10:07;5.90;99.90
59307;DHT22;47983;53.016;-2.260;2023-03-01T02:12:36;5.90;99.90
59307;DHT22;47983;53.016;-2.260;2023-03-01T02:15:04;5.90;99.90
59307;DHT22;47983;53.016;-2.260;2023-03-01T02:17:33;5.90;99.90
59307;DHT22;47983;53.016;-2.260;2023-03-01T02:20:37;5.90;99.90
59307;DHT22;47983;53.016;-2.260;2023-03-01T02:23:02;5.90;99.90
59307;DHT22;47983;53.016;-2.260;2023-03-01T02:25:45;5.90;99.90
59307;DHT22;47983;53.016;-2.260;2023-03-01T02:30:47;5.90;99.90
59307;DHT22;47983;53.016;-2.260;2023-03-01T02:33:36;5.90;99.90
59307;DHT22;47983;53.016;-2.260;2023-03-01T02:36:08;5.90;99.90
59307;DHT22;47983;53.016;-2.260;2023-03-01T02:38:36;5.90;99.90
59307;DHT22;47983;53.016;-2.260;2023-03-01T02:41:05;5.90;99.90
59307;DHT22;47983;53.016;-2.260;2023-03-01T02:43:34;5.80;99.90
59307;DHT22;47983;53.016;-2.260;2023-03-01T02:46:08;5.90;99.90
59307;DHT22;47983;53.016;-2.260;2023-03-01T02:48:44;5.80;99.90
59307;DHT22;47983;53.016;-2.260;2023-03-01T02:54:08;5.80;99.90
59307;DHT22;47983;53.016;-2.260;2023-03-01T02:56:37;5.70;99.90
59307;DHT22;47983;53.016;-2.260;2023-03-01T02:59:05;5.70;99.90
59307;DHT22;47983;53.016;-2.260;2023-03-01T03:01:33;5.70;99.90
59307;DHT22;47983;53.016;-2.260;2023-03-01T03:04:11;5.70;99.90
59307;DHT22;47983;53.016;-2.260;2023-03-01T03:06:49;5.70;99.90
59307;DHT22;47983;53.016;-2.260;2023-03-01T03:09:18;5.70;99.90
59307;DHT22;47983;53.016;-2.260;2023-03-01T03:11:46;5.70;99.90
59307;DHT22;47983;53.016;-2.260;2023-03-01T03:14:16;5.70;99.90
59307;DHT22;47983;53.016;-2.260;2023-03-01T03:16:48;5.70;99.90
59307;DHT22;47983;53.016;-2.260;2023-03-01T03:19:18;5.70;99.90
59307;DHT22;47983;53.016;-2.260;2023-03-01T03:21:46;5.80;99.90
59307;DHT22;47983;53.016;-2.260;2023-03-01T03:24:13;5.70;99.90
59307;DHT22;47983;53.016;-2.260;2023-03-01T03:26:41;5.80;99.90
59307;DHT22;47983;53.016;-2.260;2023-03-01T03:29:08;5.80;99.90
59307;DHT22;47983;53.016;-2.260;2023-03-01T03:31:36;5.80;99.90
59307;DHT22;47983;53.016;-2.260;2023-03-01T03:34:04;5.80;99.90
59307;DHT22;47983;53.016;-2.260;2023-03-01T03:36:31;5.80;99.90
59307;DHT22;47983;53.016;-2.260;2023-03-01T03:38:59;5.80;99.90
59307;DHT22;47983;53.016;-2.260;2023-03-01T03:41:26;5.80;99.90
59307;DHT22;47983;53.016;-2.260;2023-03-01T03:46:22;5.80;99.90
59307;DHT22;47983;53.016;-2.260;2023-03-01T03:48:50;5.80;99.90
59307;DHT22;47983;53.016;-2.260;2023-03-01T03:51:18;5.80;99.90
59307;DHT22;47983;53.016;-2.260;2023-03-01T03:53:46;5.80;99.90
59307;DHT22;47983;53.016;-2.260;2023-03-01T03:56:14;5.70;99.90
59307;DHT22;47983;53.016;-2.260;2023-03-01T03:58:41;5.70;99.90
59307;DHT22;47983;53.016;-2.260;2023-03-01T04:01:09;5.70;99.90
59307;DHT22;47983;53.016;-2.260;2023-03-01T04:03:36;5.70;99.90
59307;DHT22;47983;53.016;-2.260;2023-03-01T04:06:04;5.70;99.90
59307;DHT22;47983;53.016;-2.260;2023-03-01T04:08:32;5.70;99.90
59307;DHT22;47983;53.016;-2.260;2023-03-01T04:11:01;5.70;99.90
59307;DHT22;47983;53.016;-2.260;2023-03-01T04:13:50;5.70;99.90
59307;DHT22;47983;53.016;-2.260;2023-03-01T04:16:18;5.70;99.90
59307;DHT22;47983;53.016;-2.260;2023-03-01T04:18:46;5.70;99.90
59307;DHT22;47983;53.016;-2.260;2023-03-01T04:21:14;5.70;99.90
59307;DHT22;47983;53.016;-2.260;2023-03-01T04:23:41;5.70;99.90
59307;DHT22;47983;53.016;-2.260;2023-03-01T04:26:09;5.70;99.90
59307;DHT22;47983;53.016;-2.260;2023-03-01T04:28:39;5.70;99.90
59307;DHT22;47983;53.016;-2.260;2023-03-01T04:31:18;5.70;99.90
59307;DHT22;47983;53.016;-2.260;2023-03-01T04:33:50;5.70;99.90
59307;DHT22;47983;53.016;-2.260;2023-03-01T04:36:24;5.70;99.90
59307;DHT22;47983;53.016;-2.260;2023-03-01T04:38:52;5.70;99.90
59307;DHT22;47983;53.016;-2.260;2023-03-01T04:41:22;5.70;99.90
59307;DHT22;47983;53.016;-2.260;2023-03-01T04:43:50;5.70;99.90
59307;DHT22;47983;53.016;-2.260;2023-03-01T04:46:20;5.60;99.90
59307;DHT22;47983;53.016;-2.260;2023-03-01T04:48:48;5.60;99.90
59307;DHT22;47983;53.016;-2.260;2023-03-01T04:51:16;5.60;99.90
59307;DHT22;47983;53.016;-2.260;2023-03-01T04:53:44;5.60;99.90
59307;DHT22;47983;53.016;-2.260;2023-03-01T04:56:12;5.60;99.90
59307;DHT22;47983;53.016;-2.260;2023-03-01T04:58:43;5.60;99.90
59307;DHT22;47983;53.016;-2.260;2023-03-01T05:01:20;5.60;99.90
59307;DHT22;47983;53.016;-2.260;2023-03-01T05:03:50;5.60;99.90
59307;DHT22;47983;53.016;-2.260;2023-03-01T05:06:20;5.60;99.90
59307;DHT22;47983;53.016;-2.260;2023-03-01T05:08:47;5.60;99.90
59307;DHT22;47983;53.016;-2.260;2023-03-01T05:11:15;5.60;99.90
59307;DHT22;47983;53.016;-2.260;2023-03-01T05:13:42;5.60;99.90
59307;DHT22;47983;53.016;-2.260;2023-03-01T05:16:10;5.60;99.90
59307;DHT22;47983;53.016;-2.260;2023-03-01T05:18:41;5.50;99.90
59307;DHT22;47983;53.016;-2.260;2023-03-01T05:21:12;5.40;99.90
59307;DHT22;47983;53.016;-2.260;2023-03-01T05:23:39;5.30;99.90
59307;DHT22;47983;53.016;-2.260;2023-03-01T05:26:08;5.20;99.90
59307;DHT22;47983;53.016;-2.260;2023-03-01T05:28:54;5.10;99.90
59307;DHT22;47983;53.016;-2.260;2023-03-01T05:31:26;5.00;99.90
59307;DHT22;47983;53.016;-2.260;2023-03-01T05:33:54;4.90;99.90
59307;DHT22;47983;53.016;-2.260;2023-03-01T05:36:22;4.70;99.90
59307;DHT22;47983;53.016;-2.260;2023-03-01T05:38:49;4.70;99.90
59307;DHT22;47983;53.016;-2.260;2023-03-01T05:41:17;4.50;99.90
59307;DHT22;47983;53.016;-2.260;2023-03-01T05:43:44;4.40;99.90
59307;DHT22;47983;53.016;-2.260;2023-03-01T05:46:12;4.30;99.90
59307;DHT22;47983;53.016;-2.260;2023-03-01T05:48:42;4.20;99.90
59307;DHT22;47983;53.016;-2.260;2023-03-01T05:51:10;4.10;99.90
59307;DHT22;47983;53.016;-2.260;2023-03-01T05:53:39;4.00;99.90
59307;DHT22;47983;53.016;-2.260;2023-03-01T05:56:07;3.90;99.90
59307;DHT22;47983;53.016;-2.260;2023-03-01T05:58:36;3.90;99.90
59307;DHT22;47983;53.016;-2.260;2023-03-01T06:01:10;3.90;99.90
59307;DHT22;47983;53.016;-2.260;2023-03-01T06:03:38;3.80;99.90
59307;DHT22;47983;53.016;-2.260;2023-03-01T06:06:05;3.80;99.90
59307;DHT22;47983;53.016;-2.260;2023-03-01T06:08:33;3.80;99.90
59307;DHT22;47983;53.016;-2.260;2023-03-01T06:11:00;3.90;99.90
59307;DHT22;47983;53.016;-2.260;2023-03-01T06:15:59;3.90;99.90
59307;DHT22;47983;53.016;-2.260;2023-03-01T06:18:27;4.00;99.90
59307;DHT22;47983;53.016;-2.260;2023-03-01T06:20:55;4.00;99.90
59307;DHT22;47983;53.016;-2.260;2023-03-01T06:23:23;4.10;99.90
59307;DHT22;47983;53.016;-2.260;2023-03-01T06:25:52;4.20;99.90
59307;DHT22;47983;53.016;-2.260;2023-03-01T06:28:20;4.30;99.90
59307;DHT22;47983;53.016;-2.260;2023-03-01T06:30:49;4.30;99.90
59307;DHT22;47983;53.016;-2.260;2023-03-01T06:33:18;4.40;99.90
59307;DHT22;47983;53.016;-2.260;2023-03-01T06:35:47;4.50;99.90
59307;DHT22;47983;53.016;-2.260;2023-03-01T06:38:14;4.50;99.90
59307;DHT22;47983;53.016;-2.260;2023-03-01T06:40:44;4.50;99.90
59307;DHT22;47983;53.016;-2.260;2023-03-01T06:43:12;4.60;99.90
59307;DHT22;47983;53.016;-2.260;2023-03-01T06:45:40;4.60;99.90
59307;DHT22;47983;53.016;-2.260;2023-03-01T06:48:07;4.60;99.90
59307;DHT22;47983;53.016;-2.260;2023-03-01T06:50:35;4.60;99.90
59307;DHT22;47983;53.016;-2.260;2023-03-01T06:53:04;5.20;99.90
59307;DHT22;47983;53.016;-2.260;2023-03-01T06:55:32;4.70;99.90
59307;DHT22;47983;53.016;-2.260;2023-03-01T06:58:01;4.70;99.90
59307;DHT22;47983;53.016;-2.260;2023-03-01T07:00:30;4.70;99.90
59307;DHT22;47983;53.016;-2.260;2023-03-01T07:02:59;4.80;99.90
59307;DHT22;47983;53.016;-2.260;2023-03-01T07:05:27;4.70;99.90
59307;DHT22;47983;53.016;-2.260;2023-03-01T07:07:55;4.70;99.90
59307;DHT22;47983;53.016;-2.260;2023-03-01T07:10:23;4.70;99.90
59307;DHT22;47983;53.016;-2.260;2023-03-01T07:12:55;4.70;99.90
59307;DHT22;47983;53.016;-2.260;2023-03-01T07:15:23;4.70;99.90
59307;DHT22;47983;53.016;-2.260;2023-03-01T07:17:51;4.70;99.90
59307;DHT22;47983;53.016;-2.260;2023-03-01T07:20:19;4.60;99.90
59307;DHT22;47983;53.016;-2.260;2023-03-01T07:22:52;4.70;99.90
59307;DHT22;47983;53.016;-2.260;2023-03-01T07:25:20;4.70;99.90
59307;DHT22;47983;53.016;-2.260;2023-03-01T07:27:52;4.70;99.90
59307;DHT22;47983;53.016;-2.260;2023-03-01T07:30:21;4.70;99.90
59307;DHT22;47983;53.016;-2.260;2023-03-01T07:32:49;4.70;99.90
59307;DHT22;47983;53.016;-2.260;2023-03-01T07:35:17;4.80;99.90
59307;DHT22;47983;53.016;-2.260;2023-03-01T07:37:45;4.80;99.90
59307;DHT22;47983;53.016;-2.260;2023-03-01T07:40:12;4.80;99.90
59307;DHT22;47983;53.016;-2.260;2023-03-01T07:42:40;4.90;99.90
59307;DHT22;47983;53.016;-2.260;2023-03-01T07:45:08;4.90;99.90
59307;DHT22;47983;53.016;-2.260;2023-03-01T07:47:36;4.90;99.90
59307;DHT22;47983;53.016;-2.260;2023-03-01T07:50:04;5.00;99.90
59307;DHT22;47983;53.016;-2.260;2023-03-01T07:52:32;4.90;99.90
59307;DHT22;47983;53.016;-2.260;2023-03-01T07:55:00;5.00;99.90
59307;DHT22;47983;53.016;-2.260;2023-03-01T07:57:28;5.00;99.90
59307;DHT22;47983;53.016;-2.260;2023-03-01T07:59:55;5.10;99.90
59307;DHT22;47983;53.016;-2.260;2023-03-01T08:02:23;5.10;99.90
59307;DHT22;47983;53.016;-2.260;2023-03-01T08:04:51;5.20;99.90
59307;DHT22;47983;53.016;-2.260;2023-03-01T08:07:18;5.20;99.90
59307;DHT22;47983;53.016;-2.260;2023-03-01T08:09:46;5.20;99.90
59307;DHT22;47983;53.016;-2.260;2023-03-01T08:12:13;5.20;99.90
59307;DHT22;47983;53.016;-2.260;2023-03-01T08:14:43;5.20;99.90
59307;DHT22;47983;53.016;-2.260;2023-03-01T08:17:13;5.20;99.90
59307;DHT22;47983;53.016;-2.260;2023-03-01T08:19:42;5.20;99.90
59307;DHT22;47983;53.016;-2.260;2023-03-01T08:22:10;5.30;99.90
59307;DHT22;47983;53.016;-2.260;2023-03-01T08:24:38;5.40;99.90
59307;DHT22;47983;53.016;-2.260;2023-03-01T08:27:05;5.30;99.90
59307;DHT22;47983;53.016;-2.260;2023-03-01T08:29:33;5.30;99.90
59307;DHT22;47983;53.016;-2.260;2023-03-01T08:32:01;5.40;99.90
59307;DHT22;47983;53.016;-2.260;2023-03-01T08:34:29;5.40;99.90
59307;DHT22;47983;53.016;-2.260;2023-03-01T08:36:58;5.40;99.90
59307;DHT22;47983;53.016;-2.260;2023-03-01T08:39:26;5.40;99.90
59307;DHT22;47983;53.016;-2.260;2023-03-01T08:41:53;5.30;99.90
59307;DHT22;47983;53.016;-2.260;2023-03-01T08:44:21;5.30;99.90
59307;DHT22;47983;53.016;-2.260;2023-03-01T08:46:50;5.30;99.90
59307;DHT22;47983;53.016;-2.260;2023-03-01T08:49:20;6.20;99.90
59307;DHT22;47983;53.016;-2.260;2023-03-01T08:51:48;5.40;99.90
59307;DHT22;47983;53.016;-2.260;2023-03-01T08:54:20;5.40;99.90
59307;DHT22;47983;53.016;-2.260;2023-03-01T08:56:49;5.40;99.90
59307;DHT22;47983;53.016;-2.260;2023-03-01T08:59:17;5.40;99.90
59307;DHT22;47983;53.016;-2.260;2023-03-01T09:01:45;5.50;99.90
59307;DHT22;47983;53.016;-2.260;2023-03-01T09:04:14;5.60;99.90
59307;DHT22;47983;53.016;-2.260;2023-03-01T09:09:15;5.60;99.90
59307;DHT22;47983;53.016;-2.260;2023-03-01T09:11:44;5.70;99.90
59307;DHT22;47983;53.016;-2.260;2023-03-01T09:14:17;5.70;99.90
59307;DHT22;47983;53.016;-2.260;2023-03-01T09:16:45;5.80;99.90
59307;DHT22;47983;53.016;-2.260;2023-03-01T09:19:13;5.80;99.90
59307;DHT22;47983;53.016;-2.260;2023-03-01T09:21:42;5.90;99.90
59307;DHT22;47983;53.016;-2.260;2023-03-01T09:24:23;5.90;99.90
59307;DHT22;47983;53.016;-2.260;2023-03-01T09:26:54;6.10;99.90
59307;DHT22;47983;53.016;-2.260;2023-03-01T09:29:23;6.10;99.90
59307;DHT22;47983;53.016;-2.260;2023-03-01T09:31:50;6.30;99.90
59307;DHT22;47983;53.016;-2.260;2023-03-01T09:34:18;6.30;99.90
59307;DHT22;47983;53.016;-2.260;2023-03-01T09:36:50;6.40;99.90
59307;DHT22;47983;53.016;-2.260;2023-03-01T09:39:19;6.40;99.90
59307;DHT22;47983;53.016;-2.260;2023-03-01T09:44:28;6.50;99.90
59307;DHT22;47983;53.016;-2.260;2023-03-01T09:46:59;6.50;99.90
59307;DHT22;47983;53.016;-2.260;2023-03-01T09:49:33;6.40;99.90
59307;DHT22;47983;53.016;-2.260;2023-03-01T09:52:36;6.50;99.90
59307;DHT22;47983;53.016;-2.260;2023-03-01T09:55:15;6.50;99.90
59307;DHT22;47983;53.016;-2.260;2023-03-01T10:03:43;6.70;99.90
59307;DHT22;47983;53.016;-2.260;2023-03-01T10:06:21;6.70;99.90
59307;DHT22;47983;53.016;-2.260;2023-03-01T10:09:10;6.80;99.90
59307;DHT22;47983;53.016;-2.260;2023-03-01T10:11:46;6.80;99.90
59307;DHT22;47983;53.016;-2.260;2023-03-01T10:14:33;6.80;99.90
59307;DHT22;47983;53.016;-2.260;2023-03-01T10:19:47;7.00;99.90
59307;DHT22;47983;53.016;-2.260;2023-03-01T10:22:19;7.10;99.90
59307;DHT22;47983;53.016;-2.260;2023-03-01T10:24:51;7.20;99.90
59307;DHT22;47983;53.016;-2.260;2023-03-01T10:27:24;7.20;99.90
59307;DHT22;47983;53.016;-2.260;2023-03-01T10:30:12;7.30;99.90
59307;DHT22;47983;53.016;-2.260;2023-03-01T10:32:44;7.30;99.90
59307;DHT22;47983;53.016;-2.260;2023-03-01T10:35:20;7.40;99.90
59307;DHT22;47983;53.016;-2.260;2023-03-01T10:38:10;7.40;99.90
59307;DHT22;47983;53.016;-2.260;2023-03-01T10:40:54;7.50;99.90
59307;DHT22;47983;53.016;-2.260;2023-03-01T10:43:26;7.50;99.90
59307;DHT22;47983;53.016;-2.260;2023-03-01T10:45:54;7.60;99.90
59307;DHT22;47983;53.016;-2.260;2023-03-01T10:48:24;7.80;99.90
59307;DHT22;47983;53.016;-2.260;2023-03-01T10:53:37;7.80;99.90
59307;DHT22;47983;53.016;-2.260;2023-03-01T10:56:11;8.00;99.90
59307;DHT22;47983;53.016;-2.260;2023-03-01T10:59:02;8.00;99.90
59307;DHT22;47983;53.016;-2.260;2023-03-01T11:01:32;8.00;99.90
59307;DHT22;47983;53.016;-2.260;2023-03-01T11:06:34;8.30;99.90
59307;DHT22;47983;53.016;-2.260;2023-03-01T11:09:21;8.50;99.90
59307;DHT22;47983;53.016;-2.260;2023-03-01T11:11:57;8.70;99.90
59307;DHT22;47983;53.016;-2.260;2023-03-01T11:14:32;8.70;99.90
59307;DHT22;47983;53.016;-2.260;2023-03-01T11:22:35;8.70;99.90
59307;DHT22;47983;53.016;-2.260;2023-03-01T11:25:03;8.60;99.90
59307;DHT22;47983;53.016;-2.260;2023-03-01T11:27:42;8.60;99.90
59307;DHT22;47983;53.016;-2.260;2023-03-01T11:30:30;8.50;99.90
59307;DHT22;47983;53.016;-2.260;2023-03-01T11:33:08;8.50;99.90
59307;DHT22;47983;53.016;-2.260;2023-03-01T11:35:47;8.40;99.90
59307;DHT22;47983;53.016;-2.260;2023-03-01T11:38:25;8.30;99.90
59307;DHT22;47983;53.016;-2.260;2023-03-01T11:41:15;8.20;99.90
59307;DHT22;47983;53.016;-2.260;2023-03-01T11:44:14;8.10;99.90
59307;DHT22;47983;53.016;-2.260;2023-03-01T12:00:07;9.00;99.90
59307;DHT22;47983;53.016;-2.260;2023-03-01T12:03:06;9.10;99.90
59307;DHT22;47983;53.016;-2.260;2023-03-01T12:08:48;8.90;99.90
59307;DHT22;47983;53.016;-2.260;2023-03-01T12:25:39;8.40;99.90
59307;DHT22;47983;53.016;-2.260;2023-03-01T12:28:19;8.30;99.90
59307;DHT22;47983;53.016;-2.260;2023-03-01T12:30:57;8.30;99.90
59307;DHT22;47983;53.016;-2.260;2023-03-01T12:39:54;8.30;99.90
59307;DHT22;47983;53.016;-2.260;2023-03-01T12:47:11;8.40;99.90
59307;DHT22;47983;53.016;-2.260;2023-03-01T12:49:45;8.40;99.90
59307;DHT22;47983;53.016;-2.260;2023-03-01T12:52:23;8.40;99.90
59307;DHT22;47983;53.016;-2.260;2023-03-01T12:54:54;8.40;99.90
59307;DHT22;47983;53.016;-2.260;2023-03-01T12:57:31;8.50;99.90
59307;DHT22;47983;53.016;-2.260;2023-03-01T13:00:27;8.60;99.90
59307;DHT22;47983;53.016;-2.260;2023-03-01T13:03:19;8.60;99.90
59307;DHT22;47983;53.016;-2.260;2023-03-01T13:06:19;8.70;99.90
59307;DHT22;47983;53.016;-2.260;2023-03-01T13:08:59;8.80;99.90
59307;DHT22;47983;53.016;-2.260;2023-03-01T13:11:29;8.80;99.90
59307;DHT22;47983;53.016;-2.260;2023-03-01T13:16:51;9.10;99.90
59307;DHT22;47983;53.016;-2.260;2023-03-01T13:19:25;9.60;99.90
59307;DHT22;47983;53.016;-2.260;2023-03-01T13:21:54;10.00;99.90
59307;DHT22;47983;53.016;-2.260;2023-03-01T13:24:41;10.10;99.90
59307;DHT22;47983;53.016;-2.260;2023-03-01T13:27:18;10.00;99.90
59307;DHT22;47983;53.016;-2.260;2023-03-01T13:29:54;9.90;99.90
59307;DHT22;47983;53.016;-2.260;2023-03-01T13:32:24;9.80;99.90
59307;DHT22;47983;53.016;-2.260;2023-03-01T13:37:41;9.60;99.90
59307;DHT22;47983;53.016;-2.260;2023-03-01T13:42:51;9.50;99.90
59307;DHT22;47983;53.016;-2.260;2023-03-01T13:45:43;9.50;99.90
59307;DHT22;47983;53.016;-2.260;2023-03-01T13:48:20;9.50;99.90
59307;DHT22;47983;53.016;-2.260;2023-03-01T13:50:58;9.40;99.90
59307;DHT22;47983;53.016;-2.260;2023-03-01T13:53:30;9.30;99.90
59307;DHT22;47983;53.016;-2.260;2023-03-01T13:56:02;9.30;99.90
59307;DHT22;47983;53.016;-2.260;2023-03-01T13:58:52;9.30;99.90
59307;DHT22;47983;53.016;-2.260;2023-03-01T14:01:30;9.20;99.90
59307;DHT22;47983;53.016;-2.260;2023-03-01T14:04:00;9.20;99.90
59307;DHT22;47983;53.016;-2.260;2023-03-01T14:06:32;9.20;99.90
59307;DHT22;47983;53.016;-2.260;2023-03-01T14:09:24;9.20;99.90
59307;DHT22;47983;53.016;-2.260;2023-03-01T14:12:01;9.50;99.90
59307;DHT22;47983;53.016;-2.260;2023-03-01T14:20:22;12.70;99.90
59307;DHT22;47983;53.016;-2.260;2023-03-01T14:22:54;13.30;99.90
59307;DHT22;47983;53.016;-2.260;2023-03-01T14:25:34;13.20;99.90
59307;DHT22;47983;53.016;-2.260;2023-03-01T14:30:34;12.90;99.90
59307;DHT22;47983;53.016;-2.260;2023-03-01T14:33:06;12.50;99.90
59307;DHT22;47983;53.016;-2.260;2023-03-01T14:35:35;12.00;99.90
59307;DHT22;47983;53.016;-2.260;2023-03-01T14:38:03;11.40;99.90
59307;DHT22;47983;53.016;-2.260;2023-03-01T14:43:01;10.70;99.90
59307;DHT22;47983;53.016;-2.260;2023-03-01T14:45:30;10.40;99.90
59307;DHT22;47983;53.016;-2.260;2023-03-01T14:48:03;10.30;99.90
59307;DHT22;47983;53.016;-2.260;2023-03-01T14:50:33;10.10;99.90
59307;DHT22;47983;53.016;-2.260;2023-03-01T14:53:05;10.10;99.90
59307;DHT22;47983;53.016;-2.260;2023-03-01T14:55:41;10.00;99.90
59307;DHT22;47983;53.016;-2.260;2023-03-01T14:58:13;9.90;99.90
59307;DHT22;47983;53.016;-2.260;2023-03-01T15:01:02;9.80;99.90
59307;DHT22;47983;53.016;-2.260;2023-03-01T15:03:36;9.70;99.90
59307;DHT22;47983;53.016;-2.260;2023-03-01T15:06:06;9.80;99.90
59307;DHT22;47983;53.016;-2.260;2023-03-01T15:08:35;9.80;99.90
59307;DHT22;47983;53.016;-2.260;2023-03-01T15:13:41;9.70;99.90
59307;DHT22;47983;53.016;-2.260;2023-03-01T15:16:12;9.60;99.90
59307;DHT22;47983;53.016;-2.260;2023-03-01T15:18:49;9.50;99.90
59307;DHT22;47983;53.016;-2.260;2023-03-01T15:21:37;9.40;99.90
59307;DHT22;47983;53.016;-2.260;2023-03-01T15:26:56;9.10;99.90
59307;DHT22;47983;53.016;-2.260;2023-03-01T15:29:30;9.00;99.90
59307;DHT22;47983;53.016;-2.260;2023-03-01T15:32:06;8.90;99.90
59307;DHT22;47983;53.016;-2.260;2023-03-01T15:34:50;8.80;99.90
59307;DHT22;47983;53.016;-2.260;2023-03-01T15:37:47;8.80;99.90
59307;DHT22;47983;53.016;-2.260;2023-03-01T15:42:49;8.70;99.90
59307;DHT22;47983;53.016;-2.260;2023-03-01T15:47:53;8.70;99.90
59307;DHT22;47983;53.016;-2.260;2023-03-01T15:50:23;8.70;99.90
59307;DHT22;47983;53.016;-2.260;2023-03-01T15:52:51;8.80;99.90
59307;DHT22;47983;53.016;-2.260;2023-03-01T15:55:24;8.80;99.90
59307;DHT22;47983;53.016;-2.260;2023-03-01T16:00:32;8.80;99.90
59307;DHT22;47983;53.016;-2.260;2023-03-01T16:03:00;8.80;99.90
59307;DHT22;47983;53.016;-2.260;2023-03-01T16:05:30;8.70;99.90
59307;DHT22;47983;53.016;-2.260;2023-03-01T16:07:59;8.70;99.90
59307;DHT22;47983;53.016;-2.260;2023-03-01T16:10:28;8.70;99.90
59307;DHT22;47983;53.016;-2.260;2023-03-01T16:12:56;8.70;99.90
59307;DHT22;47983;53.016;-2.260;2023-03-01T16:15:32;8.70;99.90
59307;DHT22;47983;53.016;-2.260;2023-03-01T16:18:02;8.60;99.90
59307;DHT22;47983;53.016;-2.260;2023-03-01T16:20:30;8.60;99.90
59307;DHT22;47983;53.016;-2.260;2023-03-01T16:23:01;8.50;99.90
59307;DHT22;47983;53.016;-2.260;2023-03-01T16:25:30;8.40;99.90
59307;DHT22;47983;53.016;-2.260;2023-03-01T16:27:58;8.30;99.90
59307;DHT22;47983;53.016;-2.260;2023-03-01T16:30:28;8.30;99.90
59307;DHT22;47983;53.016;-2.260;2023-03-01T16:32:55;8.30;99.90
59307;DHT22;47983;53.016;-2.260;2023-03-01T16:35:23;8.30;99.90
59307;DHT22;47983;53.016;-2.260;2023-03-01T16:37:51;8.20;99.90
59307;DHT22;47983;53.016;-2.260;2023-03-01T16:40:26;8.20;99.90
59307;DHT22;47983;53.016;-2.260;2023-03-01T16:42:55;8.20;99.90
59307;DHT22;47983;53.016;-2.260;2023-03-01T16:45:28;8.20;99.90
59307;DHT22;47983;53.016;-2.260;2023-03-01T16:48:00;8.10;99.90
59307;DHT22;47983;53.016;-2.260;2023-03-01T16:50:27;8.10;99.90
59307;DHT22;47983;53.016;-2.260;2023-03-01T16:52:55;8.10;99.90
59307;DHT22;47983;53.016;-2.260;2023-03-01T16:55:22;8.00;99.90
59307;DHT22;47983;53.016;-2.260;2023-03-01T16:57:50;7.90;99.90
59307;DHT22;47983;53.016;-2.260;2023-03-01T17:00:18;7.90;99.90
59307;DHT22;47983;53.016;-2.260;2023-03-01T17:02:46;7.90;99.90
59307;DHT22;47983;53.016;-2.260;2023-03-01T17:05:14;7.90;99.90
59307;DHT22;47983;53.016;-2.260;2023-03-01T17:07:41;7.90;99.90
59307;DHT22;47983;53.016;-2.260;2023-03-01T17:10:10;7.90;99.90
59307;DHT22;47983;53.016;-2.260;2023-03-01T17:12:38;7.80;99.90
59307;DHT22;47983;53.016;-2.260;2023-03-01T17:15:06;7.80;99.90
59307;DHT22;47983;53.016;-2.260;2023-03-01T17:17:34;7.80;99.90
59307;DHT22;47983;53.016;-2.260;2023-03-01T17:20:02;7.70;99.90
59307;DHT22;47983;53.016;-2.260;2023-03-01T17:22:31;7.70;99.90
59307;DHT22;47983;53.016;-2.260;2023-03-01T17:24:58;7.60;99.90
59307;DHT22;47983;53.016;-2.260;2023-03-01T17:27:27;7.50;99.90
59307;DHT22;47983;53.016;-2.260;2023-03-01T17:29:55;7.30;99.90
59307;DHT22;47983;53.016;-2.260;2023-03-01T17:32:22;7.30;99.90
59307;DHT22;47983;53.016;-2.260;2023-03-01T17:34:50;7.20;99.90
59307;DHT22;47983;53.016;-2.260;2023-03-01T17:37:18;7.10;99.90
59307;DHT22;47983;53.016;-2.260;2023-03-01T17:39:45;7.10;99.90
59307;DHT22;47983;53.016;-2.260;2023-03-01T17:42:13;7.10;99.90
59307;DHT22;47983;53.016;-2.260;2023-03-01T17:44:41;7.00;99.90
59307;DHT22;47983;53.016;-2.260;2023-03-01T17:47:10;7.00;99.90
59307;DHT22;47983;53.016;-2.260;2023-03-01T17:49:38;6.90;99.90